Time;durP1;ratioP1;P1;durP2;ratioP2;P2;SDS_P1;SDS_P2;PMS_P1;PMS_P2;Temp;Humidity;BMP_temperature;BMP_pressure;BME280_temperature;BME280_humidity;BME280_pressure;Samples;Min_cycle;Max_cycle;Signal;HPM_P1;HPM_P2
2023/09/05 00:00:01;;;;;;;4.78;2.50;;;;;;;18.34;69.63;101882.34;2108951;27;20879;-73
2023/09/05 00:01:03;;;;;;;4.18;2.50;;;;;;;18.33;69.45;101884.28;2114507;27;20221;-73
2023/09/05 00:02:06;;;;;;;4.50;2.58;;;;;;;18.32;69.52;101879.94;2119802;27;20883;-73
2023/09/05 00:03:07;;;;;;;3.88;2.20;;;;;;;18.31;69.53;101881.03;2140269;27;20064;-73
2023/09/05 00:04:13;;;;;;;4.60;2.67;;;;;;;18.31;69.52;101875.59;2124090;27;20042;-73
2023/09/05 00:05:19;;;;;;;4.05;2.20;;;;;;;18.30;69.40;101877.50;2115024;28;20076;-73
2023/09/05 00:06:21;;;;;;;2.47;1.92;;;;;;;18.29;69.34;101873.19;2115978;27;20046;-73
2023/09/05 00:07:24;;;;;;;3.65;2.30;;;;;;;18.28;69.45;101868.84;2106784;28;20190;-73
2023/09/05 00:08:28;;;;;;;6.43;2.10;;;;;;;18.27;69.21;101864.50;2109795;27;20090;-73
2023/09/05 00:09:32;;;;;;;4.18;2.08;;;;;;;18.26;69.01;101865.59;2123976;27;20023;-73
2023/09/05 00:10:34;;;;;;;4.70;2.25;;;;;;;18.26;68.84;101862.88;2114389;28;20071;-72
2023/09/05 00:11:38;;;;;;;4.28;2.20;;;;;;;18.25;68.91;101872.16;2115404;27;20838;-73
2023/09/05 00:12:44;;;;;;;4.47;2.20;;;;;;;18.24;68.89;101859.63;2131924;27;20023;-73
2023/09/05 00:13:46;;;;;;;4.22;1.90;;;;;;;18.24;68.80;101865.09;2115608;27;20024;-73
2023/09/05 00:14:53;;;;;;;3.22;1.85;;;;;;;18.22;68.61;101861.88;2108157;27;20028;-72
2023/09/05 00:15:54;;;;;;;2.95;1.83;;;;;;;18.22;68.52;101864.59;2115629;27;20032;-73
2023/09/05 00:16:58;;;;;;;3.90;2.03;;;;;;;18.22;68.54;101861.03;2123717;27;20150;-73
2023/09/05 00:18:00;;;;;;;5.03;2.08;;;;;;;18.21;68.54;101851.25;2122928;27;20112;-73
2023/09/05 00:19:01;;;;;;;4.50;2.25;;;;;;;18.21;68.36;101860.25;2106631;27;20036;-71
2023/09/05 00:20:09;;;;;;;4.13;2.30;;;;;;;18.21;68.62;101865.69;2123529;27;21190;-70
2023/09/05 00:21:18;;;;;;;3.85;2.00;;;;;;;18.20;68.50;101858.63;2131842;27;20894;-70
2023/09/05 00:22:20;;;;;;;3.80;2.10;;;;;;;18.20;68.40;101858.63;2115838;27;20886;-70
2023/09/05 00:23:24;;;;;;;4.07;2.22;;;;;;;18.21;68.58;101864.88;2106669;27;20029;-70
2023/09/05 00:24:37;;;;;;;4.75;2.15;;;;;;;18.20;68.37;101864.06;2115620;27;20034;-70
2023/09/05 00:25:39;;;;;;;4.32;2.00;;;;;;;18.20;68.61;101857.81;2136498;27;20887;-70
2023/09/05 00:26:47;;;;;;;5.95;2.20;;;;;;;18.19;68.78;101862.47;2123841;27;20027;-70
2023/09/05 00:27:49;;;;;;;4.50;2.30;;;;;;;18.19;68.63;101848.03;2124722;27;20028;-70
2023/09/05 00:28:51;;;;;;;5.57;2.17;;;;;;;18.19;68.71;101859.75;2123638;27;20850;-71
2023/09/05 00:29:57;;;;;;;5.20;2.38;;;;;;;18.19;68.69;101857.03;2132529;27;20034;-71
2023/09/05 00:31:01;;;;;;;3.42;1.85;;;;;;;18.17;68.94;101851.06;2131707;27;20826;-70
2023/09/05 00:32:03;;;;;;;3.13;2.15;;;;;;;18.18;68.67;101849.94;2115441;27;20032;-70
2023/09/05 00:33:05;;;;;;;4.43;2.00;;;;;;;18.17;68.64;101853.78;2115190;27;20031;-70
2023/09/05 00:34:08;;;;;;;3.58;1.95;;;;;;;18.18;68.62;101846.41;2123503;27;20860;-71
2023/09/05 00:35:11;;;;;;;3.72;2.10;;;;;;;18.16;68.56;101852.19;2115078;27;20040;-71
2023/09/05 00:36:13;;;;;;;3.03;2.00;;;;;;;18.16;68.59;101860.34;2132196;27;20031;-71
2023/09/05 00:37:21;;;;;;;3.63;2.25;;;;;;;18.16;68.56;101857.63;2123191;27;20115;-71
2023/09/05 00:38:24;;;;;;;4.93;2.20;;;;;;;18.15;68.64;101853.25;2125678;27;20031;-71
2023/09/05 00:39:26;;;;;;;6.10;2.05;;;;;;;18.15;68.60;101861.44;2131986;27;20019;-71
2023/09/05 00:40:28;;;;;;;3.97;2.00;;;;;;;18.14;68.62;101854.38;2114640;27;20996;-71
2023/09/05 00:41:35;;;;;;;4.45;1.80;;;;;;;18.14;68.59;101865.25;2115685;27;20028;-70
2023/09/05 00:42:39;;;;;;;2.50;1.85;;;;;;;18.13;68.38;101852.78;2116077;27;20028;-70
2023/09/05 00:43:42;;;;;;;3.97;2.00;;;;;;;18.14;68.47;101861.75;2132042;27;20027;-70
2023/09/05 00:44:49;;;;;;;4.50;1.92;;;;;;;18.13;68.44;101863.66;2140069;27;20022;-70
2023/09/05 00:45:53;;;;;;;3.47;1.63;;;;;;;18.10;68.60;101853.38;2124082;27;20143;-71
2023/09/05 00:47:00;;;;;;;3.70;2.08;;;;;;;18.12;68.48;101862.03;2124036;27;20868;-70
2023/09/05 00:48:09;;;;;;;4.00;2.10;;;;;;;18.11;68.75;101860.41;2140581;27;20026;-71
2023/09/05 00:49:12;;;;;;;5.20;1.90;;;;;;;18.12;68.50;101862.03;2140269;27;20877;-71
2023/09/05 00:50:18;;;;;;;3.78;1.85;;;;;;;18.11;68.75;101857.69;2123572;27;20155;-71
2023/09/05 00:51:28;;;;;;;3.45;1.60;;;;;;;18.11;68.61;101860.41;2125750;27;20054;-71
2023/09/05 00:52:30;;;;;;;4.20;1.90;;;;;;;18.11;68.71;101856.88;2119421;27;20040;-71
2023/09/05 00:53:34;;;;;;;3.70;2.75;;;;;;;18.09;68.74;101846.28;2114540;27;20020;-71
2023/09/05 00:54:40;;;;;;;3.78;1.77;;;;;;;18.11;68.79;101854.16;2115106;27;20130;-71
2023/09/05 00:55:44;;;;;;;2.47;1.57;;;;;;;18.08;68.78;101841.16;2107210;28;20025;-71
2023/09/05 00:56:46;;;;;;;3.00;1.73;;;;;;;18.09;68.70;101846.28;2106909;27;20212;-71
2023/09/05 00:57:48;;;;;;;2.83;1.63;;;;;;;18.08;68.61;101846.59;2106350;28;20067;-71
2023/09/05 00:58:54;;;;;;;3.22;2.00;;;;;;;18.09;68.63;101845.47;2114970;27;20865;-71
2023/09/05 00:59:56;;;;;;;3.35;1.65;;;;;;;18.07;68.47;101843.06;2123430;27;20063;-71
2023/09/05 01:00:59;;;;;;;2.85;1.65;;;;;;;18.06;68.36;101841.44;2106577;28;20151;-70
2023/09/05 01:02:01;;;;;;;5.18;1.95;;;;;;;18.06;68.35;101847.72;2106280;27;20745;-70
2023/09/05 01:03:04;;;;;;;4.90;2.08;;;;;;;18.06;68.39;101846.88;2106668;28;20133;-71
2023/09/05 01:04:06;;;;;;;5.38;1.90;;;;;;;18.05;68.37;101840.63;2106834;27;20040;-70
2023/09/05 01:05:10;;;;;;;4.03;1.90;;;;;;;18.05;68.45;101845.28;2106230;28;20025;-70
2023/09/05 01:06:22;;;;;;;4.07;2.00;;;;;;;18.03;68.29;101839.31;2115594;27;20092;-71
2023/09/05 01:07:40;;;;;;;3.78;1.77;;;;;;;18.04;68.49;101840.94;2114406;28;20020;-70
2023/09/05 01:08:53;;;;;;;7.20;1.92;;;;;;;18.03;68.47;101844.75;2108749;28;20029;-70
2023/09/05 01:09:56;;;;;;;4.85;2.25;;;;;;;18.04;68.36;101840.94;2093560;28;20059;-71
2023/09/05 01:11:00;;;;;;;4.65;1.83;;;;;;;18.04;68.51;101843.66;2091467;28;20045;-71
2023/09/05 01:12:02;;;;;;;5.43;1.98;;;;;;;18.04;68.59;101843.66;2100392;27;20059;-71
2023/09/05 01:13:04;;;;;;;3.72;2.00;;;;;;;18.03;68.54;101844.75;2115961;28;20040;-70
2023/09/05 01:14:06;;;;;;;5.50;1.90;;;;;;;18.03;68.61;101845.59;2107733;27;20857;-70
2023/09/05 01:15:08;;;;;;;4.75;1.88;;;;;;;18.02;68.61;101846.66;2116196;27;20040;-70
2023/09/05 01:16:10;;;;;;;2.80;1.50;;;;;;;18.03;68.59;101836.59;2107719;28;20025;-69
2023/09/05 01:17:15;;;;;;;3.42;1.77;;;;;;;18.03;68.71;101833.88;2099835;28;20099;-70
2023/09/05 01:18:16;;;;;;;3.40;1.45;;;;;;;18.03;68.69;101833.88;2107617;28;20101;-71
2023/09/05 01:19:19;;;;;;;3.17;1.50;;;;;;;18.02;68.71;101841.22;2116436;27;20059;-70
2023/09/05 01:20:29;;;;;;;3.08;1.83;;;;;;;18.03;68.74;101842.88;2133170;27;20254;-71
2023/09/05 01:21:40;;;;;;;3.63;1.33;;;;;;;18.01;68.84;101836.91;2107593;28;20025;-70
2023/09/05 01:23:03;;;;;;;3.75;1.60;;;;;;;18.01;68.96;101831.47;2103393;27;20860;-70
2023/09/05 01:24:21;;;;;;;5.78;1.50;;;;;;;18.02;68.82;101834.97;2110535;28;20032;-71
2023/09/05 01:25:30;;;;;;;6.57;1.70;;;;;;;18.03;69.02;101833.88;2113374;27;20759;-70
2023/09/05 01:26:36;;;;;;;2.40;1.40;;;;;;;18.02;68.90;101834.97;2118203;27;20134;-70
2023/09/05 01:27:38;;;;;;;3.97;1.80;;;;;;;18.03;68.98;101831.13;2116713;27;20043;-71
2023/09/05 01:28:46;;;;;;;4.00;1.70;;;;;;;18.03;68.81;101836.59;2124504;27;20026;-71
2023/09/05 01:29:51;;;;;;;4.50;1.80;;;;;;;18.03;69.13;101833.88;2124575;27;20024;-70
2023/09/05 01:30:54;;;;;;;2.92;1.70;;;;;;;18.01;69.11;101830.66;2116212;27;20035;-71
2023/09/05 01:32:01;;;;;;;4.20;1.67;;;;;;;18.03;69.12;101826.53;2108352;27;20037;-71
2023/09/05 01:33:06;;;;;;;3.38;1.88;;;;;;;18.04;69.07;101827.34;2100476;28;20025;-71
2023/09/05 01:34:08;;;;;;;2.97;1.60;;;;;;;18.05;69.23;101834.38;2108353;27;20041;-71
2023/09/05 01:35:11;;;;;;;4.25;1.58;;;;;;;18.05;69.22;101829.75;2108194;27;20041;-71
2023/09/05 01:36:15;;;;;;;5.35;1.80;;;;;;;18.05;69.05;101834.38;2115859;27;20032;-71
2023/09/05 01:37:19;;;;;;;3.45;1.40;;;;;;;18.05;69.12;101826.22;2124892;27;20035;-71
2023/09/05 01:38:21;;;;;;;5.88;1.90;;;;;;;18.04;69.08;101830.88;2107826;28;20122;-71
2023/09/05 01:39:24;;;;;;;3.17;1.50;;;;;;;18.05;69.18;101826.22;2108574;27;20032;-71
2023/09/05 01:40:26;;;;;;;2.88;1.60;;;;;;;18.05;69.25;101828.94;2116275;27;20135;-70
2023/09/05 01:41:30;;;;;;;2.80;1.80;;;;;;;18.05;69.19;101834.38;2099210;28;20782;-71
2023/09/05 01:42:35;;;;;;;2.83;1.60;;;;;;;18.05;69.21;101828.94;2109161;27;20045;-71
2023/09/05 01:43:42;;;;;;;2.28;1.67;;;;;;;18.04;69.13;101822.69;2133204;27;20868;-71
2023/09/05 01:44:44;;;;;;;4.10;1.63;;;;;;;18.05;69.13;101823.50;2115827;28;20051;-71
2023/09/05 01:45:46;;;;;;;2.50;1.50;;;;;;;18.04;69.20;101822.69;2107355;27;20025;-71
2023/09/05 01:46:47;;;;;;;3.50;1.65;;;;;;;18.05;69.28;101815.34;2115831;27;20043;-71
2023/09/05 01:47:51;;;;;;;3.55;1.73;;;;;;;18.04;69.34;101819.97;2107643;28;20139;-71
2023/09/05 01:48:59;;;;;;;3.08;1.50;;;;;;;18.05;69.27;101826.22;2101710;27;20025;-72
2023/09/05 01:50:01;;;;;;;1.40;1.30;;;;;;;18.05;69.37;101823.50;2117544;27;20036;-71
2023/09/05 01:51:05;;;;;;;2.20;1.20;;;;;;;18.05;69.22;101823.50;2124755;27;20067;-71
2023/09/05 01:52:06;;;;;;;2.85;1.40;;;;;;;18.04;69.19;101822.69;2104060;28;20061;-71
2023/09/05 01:53:08;;;;;;;3.50;1.65;;;;;;;18.03;69.30;101820.25;2099291;28;20025;-70
2023/09/05 01:54:12;;;;;;;2.42;1.40;;;;;;;18.04;69.38;101828.13;2090552;28;20045;-70
2023/09/05 01:55:14;;;;;;;4.28;1.65;;;;;;;18.03;69.34;101826.53;2100349;27;20029;-70
2023/09/05 01:56:16;;;;;;;4.28;1.65;;;;;;;18.05;69.31;101824.31;2115817;27;20090;-70
2023/09/05 01:57:18;;;;;;;3.10;1.63;;;;;;;18.04;69.39;101821.91;2116088;27;20135;-70
2023/09/05 01:58:19;;;;;;;3.10;1.70;;;;;;;18.05;69.39;101823.50;2107478;28;20217;-70
2023/09/05 01:59:22;;;;;;;3.38;1.50;;;;;;;18.05;69.39;101829.75;2099033;28;20033;-70
2023/09/05 02:00:23;;;;;;;2.53;1.50;;;;;;;18.05;69.43;101826.22;2116015;27;20032;-70
2023/09/05 02:01:32;;;;;;;2.00;1.40;;;;;;;18.04;69.58;101824.63;2108238;28;20185;-70
2023/09/05 02:02:36;;;;;;;2.45;1.55;;;;;;;18.04;69.52;101825.41;2117971;27;20909;-70
2023/09/05 02:03:39;;;;;;;2.95;1.73;;;;;;;18.04;69.57;101817.25;2107052;28;20044;-70
2023/09/05 02:04:45;;;;;;;2.42;1.70;;;;;;;18.04;69.68;101821.91;2101418;27;20106;-71
2023/09/05 02:05:50;;;;;;;2.25;1.73;;;;;;;18.03;69.44;101820.25;2107989;28;20032;-70
2023/09/05 02:06:54;;;;;;;5.10;1.98;;;;;;;18.03;69.62;101820.25;2109285;27;20040;-70
2023/09/05 02:07:57;;;;;;;2.40;1.50;;;;;;;18.02;69.68;101822.19;2116471;27;20039;-70
2023/09/05 02:09:01;;;;;;;3.33;1.98;;;;;;;18.03;69.70;101820.25;2115302;27;20182;-71
2023/09/05 02:10:06;;;;;;;2.75;1.50;;;;;;;18.02;69.74;101805.03;2099052;28;20045;-70
2023/09/05 02:11:12;;;;;;;3.33;1.60;;;;;;;18.02;69.83;101818.66;2091322;28;20156;-71
2023/09/05 02:12:16;;;;;;;2.97;1.80;;;;;;;18.02;69.91;101813.22;2108488;27;20102;-70
2023/09/05 02:13:18;;;;;;;2.50;1.73;;;;;;;18.02;69.91;101814.00;2107666;28;20029;-70
2023/09/05 02:14:25;;;;;;;3.10;2.50;;;;;;;18.01;69.93;101812.41;2107329;27;20045;-71
2023/09/05 02:15:30;;;;;;;3.08;1.60;;;;;;;18.02;69.89;101813.22;2116853;27;20024;-70
2023/09/05 02:16:33;;;;;;;4.18;1.83;;;;;;;18.00;70.25;101805.34;2099188;28;20064;-70
2023/09/05 02:17:35;;;;;;;4.25;1.60;;;;;;;18.00;69.94;101804.53;2091210;28;20111;-70
2023/09/05 02:18:39;;;;;;;2.65;1.63;;;;;;;17.99;69.92;101802.91;2107495;27;20163;-71
2023/09/05 02:19:41;;;;;;;2.42;1.52;;;;;;;18.00;70.03;101799.09;2107600;28;20048;-70
2023/09/05 02:20:43;;;;;;;2.10;1.83;;;;;;;17.99;70.11;101803.72;2123706;27;20024;-70
2023/09/05 02:21:49;;;;;;;4.13;1.60;;;;;;;17.99;70.04;101803.72;2115593;27;20047;-70
2023/09/05 02:22:51;;;;;;;2.25;1.50;;;;;;;17.96;70.26;101809.75;2108769;27;20032;-70
2023/09/05 02:23:53;;;;;;;4.35;1.73;;;;;;;17.98;70.22;101807.56;2114864;27;20839;-70
2023/09/05 02:24:55;;;;;;;3.17;1.50;;;;;;;17.99;70.13;101808.34;2107261;27;20846;-70
2023/09/05 02:26:00;;;;;;;2.58;1.80;;;;;;;17.99;70.21;101808.34;2098850;28;20049;-71
2023/09/05 02:27:02;;;;;;;1.75;1.50;;;;;;;17.98;70.25;101809.47;2099764;28;20041;-71
2023/09/05 02:28:03;;;;;;;2.47;1.45;;;;;;;17.99;70.24;101808.34;2116160;27;20875;-71
2023/09/05 02:29:07;;;;;;;2.92;1.63;;;;;;;17.98;70.30;101806.75;2107213;28;20059;-71
2023/09/05 02:30:10;;;;;;;2.28;1.50;;;;;;;17.98;70.37;101812.19;2107829;27;20056;-70
2023/09/05 02:31:14;;;;;;;2.20;1.42;;;;;;;17.98;70.37;101806.75;2124752;27;20039;-70
2023/09/05 02:32:19;;;;;;;2.70;1.58;;;;;;;17.98;70.42;101809.47;2124603;27;20120;-71
2023/09/05 02:33:21;;;;;;;1.95;1.45;;;;;;;17.98;70.41;101809.47;2115804;27;20978;-71
2023/09/05 02:34:24;;;;;;;3.70;1.30;;;;;;;17.96;70.40;101809.75;2107713;27;20144;-70
2023/09/05 02:35:27;;;;;;;3.03;1.65;;;;;;;17.94;70.46;101805.75;2107860;27;20063;-70
2023/09/05 02:36:33;;;;;;;5.15;1.55;;;;;;;17.95;70.61;101802.72;2107564;28;20024;-70
2023/09/05 02:37:36;;;;;;;2.20;1.60;;;;;;;17.96;70.53;101809.75;2108303;27;20877;-71
2023/09/05 02:38:43;;;;;;;3.60;1.60;;;;;;;17.95;70.55;101807.34;2107631;27;20041;-71
2023/09/05 02:39:45;;;;;;;3.53;1.52;;;;;;;17.95;70.62;101801.91;2108469;27;20814;-71
2023/09/05 02:40:49;;;;;;;4.63;1.60;;;;;;;17.95;70.70;101804.63;2108109;27;20094;-71
2023/09/05 02:41:50;;;;;;;2.45;1.67;;;;;;;17.93;70.70;101804.09;2107288;28;20118;-71
2023/09/05 02:42:53;;;;;;;2.60;1.40;;;;;;;17.93;70.73;101809.56;2099224;27;20902;-71
2023/09/05 02:43:55;;;;;;;2.70;1.40;;;;;;;17.94;70.79;101794.88;2099166;28;20068;-70
2023/09/05 02:44:58;;;;;;;5.18;1.65;;;;;;;17.94;70.89;101800.31;2099485;27;20090;-70
2023/09/05 02:46:02;;;;;;;3.17;1.50;;;;;;;17.93;70.84;101798.66;2115900;27;20051;-70
2023/09/05 02:47:03;;;;;;;2.53;1.50;;;;;;;17.91;70.95;101795.44;2115609;27;20036;-73
2023/09/05 02:48:07;;;;;;;2.25;1.40;;;;;;;17.90;70.94;101789.19;2124095;27;20955;-71
2023/09/05 02:49:12;;;;;;;3.40;1.67;;;;;;;17.90;71.02;101793.81;2132525;27;20029;-70
2023/09/05 02:50:16;;;;;;;2.53;1.70;;;;;;;17.89;71.04;101790.28;2115935;27;20040;-71
2023/09/05 02:51:20;;;;;;;2.85;1.50;;;;;;;17.88;71.00;101794.13;2116523;27;20035;-70
2023/09/05 02:52:25;;;;;;;2.08;1.50;;;;;;;17.89;71.21;101793.00;2110121;27;20049;-70
2023/09/05 02:53:30;;;;;;;4.43;1.35;;;;;;;17.89;71.34;101792.22;2090523;28;20136;-70
2023/09/05 02:54:32;;;;;;;4.22;1.73;;;;;;;17.90;71.19;101789.19;2099976;27;20025;-70
2023/09/05 02:55:34;;;;;;;2.22;1.50;;;;;;;17.90;71.25;101796.53;2107004;28;20032;-69
2023/09/05 02:56:38;;;;;;;3.00;1.52;;;;;;;17.90;71.22;101788.38;2098515;28;20035;-70
2023/09/05 02:57:42;;;;;;;3.17;1.52;;;;;;;17.88;71.33;101788.69;2116203;27;20031;-70
2023/09/05 02:58:49;;;;;;;3.83;1.42;;;;;;;17.90;71.31;101794.63;2131511;27;20092;-70
2023/09/05 02:59:56;;;;;;;4.03;1.77;;;;;;;17.89;71.35;101792.22;2123672;27;20030;-71
2023/09/05 03:01:11;;;;;;;5.47;1.80;;;;;;;17.90;71.29;101800.06;2115794;27;20032;-70
2023/09/05 03:02:13;;;;;;;3.20;1.55;;;;;;;17.91;71.47;101800.91;2100362;28;20864;-70
2023/09/05 03:03:17;;;;;;;2.60;1.55;;;;;;;17.92;71.35;101803.31;2099757;27;20151;-70
2023/09/05 03:04:32;;;;;;;3.17;1.40;;;;;;;17.91;71.38;101800.91;2107214;28;20025;-70
2023/09/05 03:05:40;;;;;;;2.70;1.70;;;;;;;17.91;71.40;101807.13;2103635;28;20067;-70
2023/09/05 03:06:46;;;;;;;2.28;1.55;;;;;;;17.91;71.33;101801.69;2098941;28;20044;-70
2023/09/05 03:07:51;;;;;;;1.55;1.30;;;;;;;17.91;71.39;101803.63;2100595;28;20036;-70
2023/09/05 03:08:53;;;;;;;1.90;1.50;;;;;;;17.91;71.48;101812.59;2107005;28;20035;-70
2023/09/05 03:09:56;;;;;;;2.47;1.77;;;;;;;17.93;71.76;101809.56;2099103;28;20049;-70
2023/09/05 03:11:02;;;;;;;2.80;1.60;;;;;;;17.91;71.57;101807.13;2108042;27;20043;-70
2023/09/05 03:12:06;;;;;;;6.03;1.55;;;;;;;17.91;71.56;101807.13;2107474;28;20036;-70
2023/09/05 03:13:08;;;;;;;2.08;1.48;;;;;;;17.92;71.51;101814.19;2091114;28;20033;-71
2023/09/05 03:14:10;;;;;;;1.60;1.50;;;;;;;17.92;71.37;101814.19;2099132;27;20017;-71
2023/09/05 03:15:18;;;;;;;2.70;1.42;;;;;;;17.90;71.61;101808.22;2115759;27;20055;-70
2023/09/05 03:16:25;;;;;;;3.03;1.75;;;;;;;17.91;71.51;101807.13;2107881;28;20028;-71
2023/09/05 03:17:27;;;;;;;2.53;1.80;;;;;;;17.91;71.57;101803.63;2107734;27;20126;-70
2023/09/05 03:18:28;;;;;;;3.33;1.70;;;;;;;17.91;71.58;101807.13;2098569;28;20882;-71
2023/09/05 03:19:38;;;;;;;6.63;1.60;;;;;;;17.91;71.50;101803.63;2099430;27;20033;-70
2023/09/05 03:20:44;;;;;;;2.47;1.90;;;;;;;17.91;71.53;101809.06;2108063;28;20037;-70
2023/09/05 03:21:46;;;;;;;3.63;2.05;;;;;;;17.91;71.46;101807.13;2099505;28;20052;-70
2023/09/05 03:22:56;;;;;;;5.07;2.10;;;;;;;17.91;71.48;101809.06;2100091;28;20142;-70
2023/09/05 03:23:59;;;;;;;7.07;3.83;;;;;;;17.91;71.56;101800.91;2117160;27;20064;-71
2023/09/05 03:25:03;;;;;;;5.03;3.25;;;;;;;17.91;71.57;101800.91;2115317;27;20897;-71
2023/09/05 03:26:05;;;;;;;5.30;2.40;;;;;;;17.90;71.57;101796.53;2107244;27;20032;-71
2023/09/05 03:27:13;;;;;;;3.08;2.15;;;;;;;17.90;71.56;101800.06;2116215;27;20024;-71
2023/09/05 03:28:15;;;;;;;4.13;2.50;;;;;;;17.90;71.58;101789.19;2115483;27;20158;-71
2023/09/05 03:29:22;;;;;;;3.17;2.08;;;;;;;17.91;71.62;101795.44;2100016;28;21003;-71
2023/09/05 03:30:24;;;;;;;4.55;1.98;;;;;;;17.90;71.58;101799.25;2107173;27;20838;-70
2023/09/05 03:31:28;;;;;;;2.65;1.80;;;;;;;17.88;71.80;101788.69;2106962;27;20052;-70
2023/09/05 03:32:35;;;;;;;3.65;1.80;;;;;;;17.89;71.64;101792.22;2099094;28;20939;-70
2023/09/05 03:33:37;;;;;;;3.10;1.90;;;;;;;17.91;71.79;101790.00;2100724;27;20024;-71
2023/09/05 03:34:48;;;;;;;4.97;2.25;;;;;;;17.90;71.70;101793.81;2108389;27;20028;-70
2023/09/05 03:35:52;;;;;;;6.07;2.00;;;;;;;17.90;71.66;101794.63;2117407;27;20134;-71
2023/09/05 03:36:54;;;;;;;7.55;2.33;;;;;;;17.91;71.86;101792.72;2124076;27;20046;-71
2023/09/05 03:37:58;;;;;;;3.53;2.15;;;;;;;17.89;71.83;101787.56;2106694;28;20104;-70
2023/09/05 03:39:00;;;;;;;5.55;2.10;;;;;;;17.90;71.76;101794.63;2098779;28;20037;-71
2023/09/05 03:40:07;;;;;;;3.33;2.10;;;;;;;17.90;71.86;101788.38;2115723;27;20847;-70
2023/09/05 03:41:13;;;;;;;2.83;2.13;;;;;;;17.90;71.82;101793.81;2132149;27;20043;-70
2023/09/05 03:42:18;;;;;;;3.08;2.20;;;;;;;17.90;71.69;101789.19;2107618;28;20029;-70
2023/09/05 03:43:19;;;;;;;4.60;2.30;;;;;;;17.89;71.82;101786.78;2099654;27;20848;-71
2023/09/05 03:44:21;;;;;;;4.22;2.28;;;;;;;17.90;71.95;101794.63;2114740;27;20759;-70
2023/09/05 03:45:23;;;;;;;5.28;2.85;;;;;;;17.90;71.77;101793.81;2115350;27;20106;-71
2023/09/05 03:46:27;;;;;;;5.13;2.22;;;;;;;17.90;71.86;101793.81;2124047;27;20979;-73
2023/09/05 03:47:34;;;;;;;4.90;2.20;;;;;;;17.89;71.75;101797.66;2124356;27;20024;-72
2023/09/05 03:48:36;;;;;;;3.80;2.50;;;;;;;17.89;71.92;101790.28;2123866;27;20809;-70
2023/09/05 03:49:42;;;;;;;3.58;2.40;;;;;;;17.89;71.91;101792.22;2124022;27;20027;-71
2023/09/05 03:50:45;;;;;;;6.20;2.95;;;;;;;17.89;71.86;101794.94;2107137;28;20055;-70
2023/09/05 03:51:47;;;;;;;3.92;2.47;;;;;;;17.88;71.81;101796.84;2106349;27;20032;-69
2023/09/05 03:52:51;;;;;;;7.63;2.30;;;;;;;17.89;71.89;101792.22;2115209;27;20080;-71
2023/09/05 03:53:58;;;;;;;6.78;2.33;;;;;;;17.88;72.18;101798.78;2123769;27;20011;-70
2023/09/05 03:55:03;;;;;;;4.05;2.30;;;;;;;17.87;72.04;101789.78;2123673;27;20019;-70
2023/09/05 03:56:05;;;;;;;4.20;2.90;;;;;;;17.88;71.91;101796.84;2107238;28;20040;-70
2023/09/05 03:57:08;;;;;;;4.22;2.08;;;;;;;17.89;71.93;101797.66;2090404;28;20107;-70
2023/09/05 03:58:18;;;;;;;5.57;2.10;;;;;;;17.87;71.91;101794.41;2100153;27;20028;-70
2023/09/05 03:59:23;;;;;;;7.43;2.50;;;;;;;17.88;71.89;101801.50;2107245;28;20155;-70
2023/09/05 04:00:29;;;;;;;8.75;2.63;;;;;;;17.86;71.71;101799.06;2107114;28;20036;-70
2023/09/05 04:01:31;;;;;;;6.57;3.20;;;;;;;17.86;71.85;101799.06;2090651;28;20025;-70
2023/09/05 04:02:33;;;;;;;4.88;2.50;;;;;;;17.86;71.77;101798.25;2096377;27;20819;-70
2023/09/05 04:03:35;;;;;;;3.85;2.03;;;;;;;17.86;71.77;101798.25;2108318;27;20864;-71
2023/09/05 04:04:37;;;;;;;2.50;1.88;;;;;;;17.85;71.89;101796.66;2123755;27;20798;-70
2023/09/05 04:05:43;;;;;;;3.17;1.80;;;;;;;17.82;71.71;101796.13;2115049;27;20020;-71
2023/09/05 04:06:47;;;;;;;3.97;2.17;;;;;;;17.83;71.77;101796.94;2107329;28;20080;-70
2023/09/05 04:07:49;;;;;;;7.60;2.10;;;;;;;17.81;71.77;101791.78;2098164;28;20036;-70
2023/09/05 04:08:51;;;;;;;5.18;1.90;;;;;;;17.81;71.88;101797.25;2104180;27;20878;-70
2023/09/05 04:09:57;;;;;;;3.10;2.30;;;;;;;17.81;71.88;101788.25;2106847;28;20132;-70
2023/09/05 04:10:59;;;;;;;4.38;1.85;;;;;;;17.80;71.70;101801.03;2098329;28;20037;-71
2023/09/05 04:12:01;;;;;;;2.83;1.85;;;;;;;17.81;71.92;101791.78;2107189;27;20036;-71
2023/09/05 04:13:08;;;;;;;3.38;1.75;;;;;;;17.81;71.89;101799.97;2114963;28;20844;-70
2023/09/05 04:14:10;;;;;;;2.75;1.63;;;;;;;17.81;71.99;101802.69;2115107;27;20146;-71
2023/09/05 04:15:11;;;;;;;3.53;1.67;;;;;;;17.80;71.85;101794.78;2106336;28;20036;-70
2023/09/05 04:16:15;;;;;;;3.78;2.05;;;;;;;17.80;72.02;101801.03;2097721;28;20140;-70
2023/09/05 04:17:17;;;;;;;3.10;1.70;;;;;;;17.80;72.00;101798.31;2095755;28;20021;-73
2023/09/05 04:18:18;;;;;;;3.25;1.60;;;;;;;17.81;71.92;101805.41;2097838;28;20041;-73
2023/09/05 04:19:22;;;;;;;2.63;1.63;;;;;;;17.80;72.09;101806.47;2103810;28;20064;-73
2023/09/05 04:20:31;;;;;;;3.28;1.83;;;;;;;17.81;71.90;101796.41;2113209;27;20105;-71
2023/09/05 04:21:35;;;;;;;2.85;1.70;;;;;;;17.83;72.04;101803.16;2129379;27;20884;-71
2023/09/05 04:22:37;;;;;;;3.90;1.80;;;;;;;17.85;72.02;101802.09;2119978;27;20016;-71
2023/09/05 04:23:41;;;;;;;4.30;2.03;;;;;;;17.83;72.07;101808.59;2109589;28;20078;-71
2023/09/05 04:24:42;;;;;;;2.97;1.70;;;;;;;17.85;72.16;101807.53;2099230;27;20118;-71
2023/09/05 04:25:44;;;;;;;4.55;1.85;;;;;;;17.86;72.14;101809.13;2106664;27;20040;-71
2023/09/05 04:26:46;;;;;;;5.72;1.60;;;;;;;17.86;72.09;101809.13;2112045;27;20179;-71
2023/09/05 04:27:54;;;;;;;4.05;1.75;;;;;;;17.85;71.95;101812.97;2117870;27;20134;-71
2023/09/05 04:28:56;;;;;;;2.78;1.60;;;;;;;17.86;72.02;101812.66;2103064;28;21275;-71
2023/09/05 04:29:58;;;;;;;3.88;1.70;;;;;;;17.87;71.86;101813.47;2102750;27;20017;-71
2023/09/05 04:31:05;;;;;;;3.75;1.80;;;;;;;17.88;71.97;101812.38;2111728;27;20028;-71
2023/09/05 04:32:06;;;;;;;3.22;1.77;;;;;;;17.87;71.84;101811.53;2116415;27;20031;-71
2023/09/05 04:33:10;;;;;;;5.60;1.85;;;;;;;17.88;71.93;101806.94;2123133;27;20036;-71
2023/09/05 04:34:12;;;;;;;4.70;2.08;;;;;;;17.89;71.90;101808.53;2115175;27;20035;-73
2023/09/05 04:35:15;;;;;;;2.90;1.90;;;;;;;17.89;71.82;101806.63;2114493;27;20059;-74
2023/09/05 04:36:17;;;;;;;3.72;1.70;;;;;;;17.89;71.91;101803.09;2106873;27;20139;-71
2023/09/05 04:37:19;;;;;;;5.15;2.00;;;;;;;17.92;71.78;101816.09;2097660;28;20037;-71
2023/09/05 04:38:22;;;;;;;6.65;1.90;;;;;;;17.90;71.80;101810.94;2098825;28;20057;-73
2023/09/05 04:39:26;;;;;;;4.03;2.10;;;;;;;17.91;71.87;101818.03;2099404;27;20044;-73
2023/09/05 04:40:32;;;;;;;5.03;1.98;;;;;;;17.94;71.84;101822.06;2107868;27;21121;-71
2023/09/05 04:41:36;;;;;;;3.78;2.00;;;;;;;17.93;71.81;101815.00;2107555;27;20911;-71
2023/09/05 04:42:39;;;;;;;7.20;1.90;;;;;;;17.95;71.81;101812.78;2097922;28;20043;-70
2023/09/05 04:43:40;;;;;;;4.68;2.08;;;;;;;17.95;71.90;101810.06;2108013;27;20147;-71
2023/09/05 04:44:42;;;;;;;5.22;2.00;;;;;;;17.95;71.93;101808.16;2124930;27;20024;-71
2023/09/05 04:45:53;;;;;;;3.88;1.90;;;;;;;17.97;71.85;101816.00;2115965;27;20974;-71
2023/09/05 04:47:27;;;;;;;5.50;1.75;;;;;;;17.99;72.15;101811.09;2110284;27;20033;-71
2023/09/05 04:48:31;;;;;;;3.72;1.75;;;;;;;18.02;72.12;101807.75;2126591;27;20035;-70
2023/09/05 04:49:32;;;;;;;5.65;2.00;;;;;;;18.03;72.24;101809.38;2116242;27;20028;-73
2023/09/05 04:50:34;;;;;;;3.60;2.10;;;;;;;18.05;72.25;101807.16;2107438;27;20047;-71
2023/09/05 04:51:36;;;;;;;6.80;2.00;;;;;;;18.06;72.32;101809.59;2106849;27;20036;-70
2023/09/05 04:52:37;;;;;;;2.17;1.77;;;;;;;18.09;72.33;101816.34;2108028;27;20075;-70
2023/09/05 04:53:42;;;;;;;4.90;2.53;;;;;;;18.12;72.61;101809.50;2108127;27;20028;-71
2023/09/05 04:54:43;;;;;;;2.42;1.90;;;;;;;18.14;72.53;101810.81;2120710;27;20082;-70
2023/09/05 04:55:48;;;;;;;4.93;2.60;;;;;;;18.18;72.70;101811.84;2116329;27;20043;-71
2023/09/05 04:56:51;;;;;;;3.85;1.92;;;;;;;18.21;72.87;101805.78;2116905;27;20031;-71
2023/09/05 04:57:55;;;;;;;6.18;1.98;;;;;;;18.26;72.85;101813.88;2107659;28;20090;-71